Airfield :
LOGIN :

Register | Disclaimer

   EN    FR    IT 

 










Legend :    VFR   Marginal VFR   IFR   Intensive IFR   Very Intensive IFR
Visi :
Ceiling :
>= 8 km
>= 3000ft
5 to 8 km
1000 to 3000 ft
1500m to 5 km
500 to 1000 ft
800 to 1500m
200 to 500 ft
< 800m
< 200 ft
Symbols :   Thunderstorms  Fog  Heavy snow  Heavy precipitations  Wind > 20 kt
SIGMETs :     Misc.  Thunderstorms  Icing  Turbulence  Mountain Waves  Volcanic Ashes






- Airport Elevation : 26 ft


ETNT - Wittmundhaven AB

CURRENT METAR :
  • 150020Z 08010KT 9999 BKN140 04/02 Q1007 BLU

EXPIRED METARs :
  • 142320Z 08007KT 9999 BKN220 04/02 Q1007 BLU+
  • 142220Z 10009KT 9999 BKN240 04/02 Q1007 BLU+

TAF TAF ETNT
Valid from the 15 at 00:00 until the 15 at 09:00 UTC


142300Z 1500/1509 08010KT 9999 NSW BKN160
BECMG 1501/1503 08012G22KT 5000 BR BKN006
PROB30 1503/1508 08012G25KT 4000 BR OVC003 BY ETGL



MET'MAP, your aeronautical weather chart ! - Copyright ORBIFLY December 2007 - Disclaimer

ORBIFLY MET'MAP TEAM :

Programming & Development : Alexandra Zaïnal
Concept & Development : Baudouin d'Aumeries
Co-Development & Prog : Marc-Olivier Méhu
Technical & hardware support : Manuel Goepfert

Contact : metmap@orbifly.com




SOURCES & CREDITS :

   NOAA